Time;durP1;ratioP1;P1;durP2;ratioP2;P2;SDS_P1;SDS_P2;PMS_P1;PMS_P2;Temp;Humidity;BMP_temperature;BMP_pressure;BME280_temperature;BME280_humidity;BME280_pressure;Samples;Min_cycle;Max_cycle;Signal;HPM_P1;HPM_P2
2022/08/02 00:00:27;;;;;;;;;3.50;3.50;;;;;25.76;37.06;99191.91;5051176;28;45571;-76
2022/08/02 00:02:52;;;;;;;;;3.00;3.00;;;;;25.71;37.20;99188.81;5055703;28;45363;-76
2022/08/02 00:05:17;;;;;;;;;3.00;3.00;;;;;25.64;37.01;99188.59;5055029;28;45457;-76
2022/08/02 00:07:43;;;;;;;;;3.00;3.00;;;;;25.60;37.08;99191.75;5052362;28;45647;-76
2022/08/02 00:10:10;;;;;;;;;1.75;1.75;;;;;25.58;37.45;99194.59;5048850;28;45545;-76
2022/08/02 00:12:36;;;;;;;;;4.00;4.00;;;;;25.56;37.96;99191.19;5045240;28;45412;-76
2022/08/02 00:15:04;;;;;;;;;3.00;3.00;;;;;25.56;37.85;99191.19;5046958;28;45546;-77
2022/08/02 00:17:29;;;;;;;;;4.50;3.50;;;;;25.55;38.48;99185.94;5046201;28;45560;-76
2022/08/02 00:19:55;;;;;;;;;2.50;2.50;;;;;25.54;38.10;99197.75;5037199;28;45471;-77
2022/08/02 00:22:20;;;;;;;;;3.75;3.50;;;;;25.51;38.14;99188.09;5052511;28;45530;-77
2022/08/02 00:24:45;;;;;;;;;3.00;3.00;;;;;25.48;37.91;99185.72;5055069;28;45555;-76
2022/08/02 00:27:11;;;;;;;;;3.00;2.00;;;;;25.43;38.69;99192.59;5051463;28;47060;-77
2022/08/02 00:29:36;;;;;;;;;3.25;3.00;;;;;25.37;39.10;99191.34;5055423;28;45532;-76
2022/08/02 00:32:02;;;;;;;;;2.75;2.75;;;;;25.32;38.56;99186.41;5051878;27;45400;-77
2022/08/02 00:34:27;;;;;;;;;3.75;3.00;;;;;25.27;38.84;99182.50;5052183;28;45518;-76
2022/08/02 00:36:53;;;;;;;;;3.00;3.00;;;;;25.22;39.34;99188.34;5050294;28;45759;-75
2022/08/02 00:39:18;;;;;;;;;3.00;3.00;;;;;25.19;38.37;99194.03;5055665;28;45380;-75
2022/08/02 00:41:49;;;;;;;;;3.25;3.25;;;;;25.18;38.50;99195.03;5048816;27;45543;-76
2022/08/02 00:44:15;;;;;;;;;3.75;2.25;;;;;25.19;38.15;99193.19;5053167;28;45357;-76
2022/08/02 00:46:42;;;;;;;;;4.25;3.25;;;;;25.21;38.46;99189.34;5048728;28;46282;-77
2022/08/02 00:49:07;;;;;;;;;2.60;2.60;;;;;25.22;38.58;99192.88;5049369;28;45333;-76
2022/08/02 00:51:33;;;;;;;;;2.00;2.00;;;;;25.24;38.92;99188.19;5052845;28;45382;-76
2022/08/02 00:53:58;;;;;;;;;2.00;1.50;;;;;25.27;38.45;99190.59;5053268;28;45492;-75
2022/08/02 00:56:23;;;;;;;;;4.00;3.00;;;;;25.29;38.47;99191.28;5045288;28;45586;-76
2022/08/02 00:58:49;;;;;;;;;2.75;2.75;;;;;25.31;38.51;99191.94;5050220;28;45513;-75
2022/08/02 01:01:14;;;;;;;;;2.00;2.00;;;;;25.33;38.92;99190.81;5044720;28;45461;-75
2022/08/02 01:03:40;;;;;;;;;2.25;2.25;;;;;25.33;38.49;99190.81;5053618;28;45504;-75
2022/08/02 01:06:05;;;;;;;;;3.75;3.75;;;;;25.34;38.26;99183.56;5046496;28;45498;-77
2022/08/02 01:08:31;;;;;;;;;2.00;2.00;;;;;25.34;38.57;99186.25;5040276;28;45403;-76
2022/08/02 01:10:56;;;;;;;;;3.00;3.00;;;;;25.31;38.75;99190.09;5044533;28;45451;-76
2022/08/02 01:13:22;;;;;;;;;4.00;3.00;;;;;25.29;38.93;99189.44;5049300;28;45567;-76
2022/08/02 01:15:54;;;;;;;;;3.50;3.25;;;;;25.26;39.13;99184.34;5050402;28;47362;-76
2022/08/02 01:18:39;;;;;;;;;3.20;3.20;;;;;25.24;38.91;99189.03;5054698;28;45475;-76
2022/08/02 01:21:21;;;;;;;;;4.00;4.00;;;;;25.21;39.03;99191.19;5044635;28;45440;-76
2022/08/02 01:24:24;;;;;;;;;4.25;4.25;;;;;25.16;39.00;99186.22;5050274;28;45538;-76
2022/08/02 01:26:58;;;;;;;;;3.00;3.00;;;;;25.11;39.38;99193.09;5039121;28;48041;-76
2022/08/02 01:29:38;;;;;;;;;4.60;2.80;;;;;25.04;39.64;99188.31;5045230;28;45348;-76
2022/08/02 01:32:03;;;;;;;;;3.75;3.75;;;;;25.00;39.62;99192.31;5043029;28;45436;-76
2022/08/02 01:34:41;;;;;;;;;2.75;2.00;;;;;24.96;39.78;99188.22;5039697;28;45437;-77
2022/08/02 01:37:14;;;;;;;;;3.50;3.00;;;;;24.96;40.07;99190.09;5042306;28;45469;-76
2022/08/02 01:39:43;;;;;;;;;4.40;3.00;;;;;24.93;40.32;99193.03;5053052;28;45487;-76
2022/08/02 01:42:10;;;;;;;;;6.25;4.00;;;;;24.91;39.98;99197.72;5047134;28;45419;-76
2022/08/02 01:44:40;;;;;;;;;3.00;3.00;;;;;24.88;40.48;99201.56;5048370;28;45401;-76
2022/08/02 01:47:12;;;;;;;;;4.00;4.00;;;;;24.85;39.97;99192.94;5049770;28;45906;-77
2022/08/02 01:49:39;;;;;;;;;4.60;2.20;;;;;24.84;39.92;99207.41;5047587;28;45362;-76
2022/08/02 01:52:24;;;;;;;;;3.50;3.50;;;;;24.83;39.89;99200.31;5053705;28;45376;-76
2022/08/02 01:55:21;;;;;;;;;4.00;3.00;;;;;24.80;40.34;99200.66;5041372;28;45294;-76
2022/08/02 01:57:49;;;;;;;;;3.75;2.75;;;;;24.75;40.36;99197.53;5041315;28;46584;-75
2022/08/02 02:00:16;;;;;;;;;4.00;4.00;;;;;24.68;40.90;99200.81;5044691;27;45559;-75
2022/08/02 02:02:46;;;;;;;;;4.75;3.50;;;;;24.62;40.88;99203.28;5041111;28;45585;-77
2022/08/02 02:05:14;;;;;;;;;4.00;3.00;;;;;24.59;41.07;99198.19;5065056;28;45365;-75
2022/08/02 02:07:42;;;;;;;;;5.00;4.00;;;;;24.56;41.06;99195.78;5049080;28;45715;-76
2022/08/02 02:10:10;;;;;;;;;4.00;4.00;;;;;24.55;41.28;99191.38;5051339;28;45427;-76
2022/08/02 02:12:39;;;;;;;;;6.25;6.00;;;;;24.56;41.40;99198.47;5053139;28;45457;-76
2022/08/02 02:15:08;;;;;;;;;2.00;2.00;;;;;24.57;41.75;99194.78;5053492;28;45518;-75
2022/08/02 02:17:34;;;;;;;;;3.25;3.25;;;;;24.55;41.30;99192.22;5040248;28;46493;-76
2022/08/02 02:20:02;;;;;;;;;4.60;3.40;;;;;24.58;40.78;99191.09;5049270;28;45384;-76
2022/08/02 02:22:27;;;;;;;;;3.50;3.50;;;;;24.58;40.63;99188.38;5050610;28;45612;-76
2022/08/02 02:24:53;;;;;;;;;2.25;2.25;;;;;24.59;41.39;99190.09;5047737;28;45404;-76
2022/08/02 02:27:21;;;;;;;;;3.00;3.00;;;;;24.61;41.39;99193.50;5052829;28;45404;-76
2022/08/02 02:29:50;;;;;;;;;4.25;3.25;;;;;24.63;41.30;99186.94;5047809;27;45432;-76
2022/08/02 02:32:17;;;;;;;;;2.75;2.25;;;;;24.64;41.36;99187.78;5040113;28;45477;-76
2022/08/02 02:34:45;;;;;;;;;3.00;3.00;;;;;24.62;41.64;99185.25;5043311;28;45450;-76
2022/08/02 02:37:20;;;;;;;;;4.50;3.25;;;;;24.60;41.43;99183.69;5053437;28;46370;-76
2022/08/02 02:39:49;;;;;;;;;0.40;0.40;;;;;24.58;41.44;99178.44;5054072;28;45459;-76
2022/08/02 02:42:18;;;;;;;;;4.50;4.50;;;;;24.56;41.14;99191.22;5051397;28;45369;-76
2022/08/02 02:44:46;;;;;;;;;4.25;4.00;;;;;24.54;41.29;99185.13;5052313;28;45746;-77
2022/08/02 02:47:14;;;;;;;;;1.75;1.75;;;;;24.54;41.18;99189.69;5045113;28;47032;-76
2022/08/02 02:49:43;;;;;;;;;2.80;2.80;;;;;24.47;41.53;99192.09;5053079;28;45365;-75
2022/08/02 02:52:10;;;;;;;;;2.75;2.75;;;;;24.43;41.22;99189.88;5050783;28;45404;-76
2022/08/02 02:54:37;;;;;;;;;2.25;2.25;;;;;24.41;41.23;99181.06;5046230;28;45605;-75
2022/08/02 02:57:05;;;;;;;;;3.75;3.00;;;;;24.40;41.48;99182.06;5053354;28;45511;-77
2022/08/02 02:59:33;;;;;;;;;2.80;2.80;;;;;24.39;41.19;99185.75;5054444;28;45408;-77
2022/08/02 03:01:58;;;;;;;;;3.75;3.00;;;;;24.35;41.14;99191.44;5045603;28;45447;-77
2022/08/02 03:04:26;;;;;;;;;4.00;2.75;;;;;24.33;41.70;99196.13;5046814;28;45518;-78
2022/08/02 03:06:52;;;;;;;;;2.00;2.00;;;;;24.30;41.34;99193.72;5041387;28;46405;-77
2022/08/02 03:09:18;;;;;;;;;3.50;2.00;;;;;24.29;41.24;99199.28;5045535;28;45368;-77
2022/08/02 03:11:43;;;;;;;;;3.25;3.25;;;;;24.27;41.64;99194.03;5047263;28;45777;-77
2022/08/02 03:14:11;;;;;;;;;4.00;4.00;;;;;24.25;41.47;99198.72;5057184;28;45527;-77
2022/08/02 03:16:45;;;;;;;;;5.00;5.00;;;;;24.23;41.43;99189.03;5051373;28;46345;-77
2022/08/02 03:19:11;;;;;;;;;2.60;2.40;;;;;24.21;41.62;99197.28;5044730;28;45476;-77
2022/08/02 03:21:37;;;;;;;;;3.25;3.25;;;;;24.18;41.63;99196.72;5049329;28;45531;-77
2022/08/02 03:24:03;;;;;;;;;3.00;3.00;;;;;24.16;42.08;99198.69;5057309;28;45506;-77
2022/08/02 03:26:28;;;;;;;;;4.75;3.25;;;;;24.13;41.80;99201.72;5051987;28;46157;-77
2022/08/02 03:28:54;;;;;;;;;2.50;2.50;;;;;24.11;42.00;99204.53;5053570;28;45376;-77
2022/08/02 03:31:19;;;;;;;;;5.50;3.25;;;;;24.07;41.53;99199.59;5056868;28;45403;-77
2022/08/02 03:33:45;;;;;;;;;3.75;2.75;;;;;24.06;41.79;99200.56;5047058;28;45349;-77
2022/08/02 03:36:13;;;;;;;;;7.50;7.50;;;;;24.03;42.34;99196.31;5039502;28;45527;-77
2022/08/02 03:38:41;;;;;;;;;0.40;0.40;;;;;24.00;42.10;99199.28;5052995;28;45475;-78
2022/08/02 03:41:08;;;;;;;;;4.00;4.00;;;;;23.93;42.48;99203.56;5051495;28;45351;-78
2022/08/02 03:43:36;;;;;;;;;5.00;4.00;;;;;23.90;42.48;99198.47;5049459;28;45511;-77
2022/08/02 03:46:03;;;;;;;;;4.00;4.00;;;;;23.87;42.30;99205.00;5055123;28;46989;-77
2022/08/02 03:48:32;;;;;;;;;2.40;2.00;;;;;23.82;42.95;99204.56;5045727;28;45408;-77
2022/08/02 03:50:58;;;;;;;;;3.00;3.00;;;;;23.79;43.42;99201.34;5052600;28;45443;-77
2022/08/02 03:53:24;;;;;;;;;3.00;3.00;;;;;23.79;43.38;99206.72;5043717;28;45493;-77
2022/08/02 03:55:50;;;;;;;;;5.00;3.50;;;;;23.76;43.44;99210.53;5055753;28;45416;-77
2022/08/02 03:58:20;;;;;;;;;4.00;4.00;;;;;23.66;43.94;99210.53;5054050;28;45537;-77
2022/08/02 04:00:46;;;;;;;;;6.75;5.00;;;;;23.62;44.40;99206.44;5045679;28;45467;-77
2022/08/02 04:03:12;;;;;;;;;5.50;4.00;;;;;23.59;44.53;99206.72;5054325;28;45418;-77
2022/08/02 04:05:38;;;;;;;;;3.25;3.00;;;;;23.56;44.32;99198.06;5041877;28;45532;-77
2022/08/02 04:08:03;;;;;;;;;3.00;3.00;;;;;23.55;44.32;99215.22;5044679;28;45515;-77
2022/08/02 04:10:29;;;;;;;;;4.00;4.00;;;;;23.56;44.06;99220.47;5045706;28;45551;-77
2022/08/02 04:12:55;;;;;;;;;3.00;2.25;;;;;23.58;43.81;99215.78;5044905;28;45422;-77
2022/08/02 04:15:22;;;;;;;;;4.00;4.00;;;;;23.56;43.47;99217.75;5047084;28;47200;-77
2022/08/02 04:17:56;;;;;;;;;5.75;4.75;;;;;23.56;43.73;99214.22;5051988;28;45522;-76
2022/08/02 04:20:26;;;;;;;;;4.00;4.00;;;;;23.52;43.82;99216.34;5042752;28;45377;-78
2022/08/02 04:23:05;;;;;;;;;4.25;3.25;;;;;23.54;43.75;99226.97;5050401;28;45559;-75
2022/08/02 04:25:32;;;;;;;;;4.50;2.50;;;;;23.54;43.49;99224.28;5046023;28;45666;-77
2022/08/02 04:28:03;;;;;;;;;3.00;3.00;;;;;23.54;43.70;99224.28;5044898;28;45547;-78
2022/08/02 04:30:30;;;;;;;;;4.25;4.25;;;;;23.53;43.71;99223.41;5046757;28;45417;-77
2022/08/02 04:32:57;;;;;;;;;3.00;3.00;;;;;23.53;43.88;99215.34;5054481;28;45385;-77
2022/08/02 04:35:22;;;;;;;;;4.25;3.75;;;;;23.54;43.62;99227.81;5047497;28;46694;-75
2022/08/02 04:37:48;;;;;;;;;3.25;3.25;;;;;23.55;43.44;99223.28;5042820;28;45496;-77
2022/08/02 04:40:14;;;;;;;;;4.50;4.50;;;;;23.57;43.37;99227.53;5041177;28;45459;-78
2022/08/02 04:42:40;;;;;;;;;6.00;4.00;;;;;23.57;43.35;99226.69;5046670;28;45688;-78
2022/08/02 04:45:07;;;;;;;;;6.50;5.00;;;;;23.57;43.66;99229.38;5053863;28;46265;-77
2022/08/02 04:47:33;;;;;;;;;3.20;3.20;;;;;23.58;43.43;99231.94;5048269;28;45438;-77
2022/08/02 04:49:58;;;;;;;;;3.00;3.00;;;;;23.60;43.89;99237.19;5051546;28;45428;-77
2022/08/02 04:52:24;;;;;;;;;4.75;4.75;;;;;23.61;43.59;99239.72;5048397;28;45531;-76
2022/08/02 04:54:50;;;;;;;;;6.00;6.00;;;;;23.64;43.66;99246.66;5048316;28;45439;-76
2022/08/02 04:59:59;;;;;;;;;4.75;3.00;;;;;23.65;43.86;99248.34;5046726;28;45688;-77
2022/08/02 05:02:25;;;;;;;;;3.75;3.75;;;;;23.65;43.89;99251.03;5049593;28;45639;-77
2022/08/02 05:04:50;;;;;;;;;6.75;4.25;;;;;23.65;43.67;99249.22;5049858;28;46122;-77
2022/08/02 05:07:16;;;;;;;;;4.75;4.00;;;;;23.67;43.83;99251.75;5044077;28;45550;-77
2022/08/02 05:09:41;;;;;;;;;3.50;3.50;;;;;23.67;43.49;99254.44;5050764;28;45476;-77
2022/08/02 05:12:07;;;;;;;;;5.00;4.00;;;;;23.67;43.80;99255.31;5041280;28;45494;-77
2022/08/02 05:14:32;;;;;;;;;4.50;4.00;;;;;23.69;43.54;99257.00;5052018;28;47439;-78
2022/08/02 05:16:58;;;;;;;;;4.00;4.00;;;;;23.69;43.78;99263.25;5053185;28;45458;-77
2022/08/02 05:19:23;;;;;;;;;4.25;4.25;;;;;23.68;44.30;99258.84;5047169;28;45932;-78
2022/08/02 05:21:48;;;;;;;;;5.75;4.50;;;;;23.65;44.74;99267.19;5053486;27;45930;-77
2022/08/02 05:24:14;;;;;;;;;6.25;4.00;;;;;23.60;44.96;99261.41;5054502;28;45483;-77
2022/08/02 05:26:39;;;;;;;;;3.25;3.25;;;;;23.55;44.76;99263.66;5054121;28;45409;-77
2022/08/02 05:29:05;;;;;;;;;5.00;5.00;;;;;23.49;45.52;99262.34;5037526;28;45496;-77
2022/08/02 05:31:30;;;;;;;;;5.00;4.75;;;;;23.49;45.81;99264.19;5047045;28;45445;-77
2022/08/02 05:33:56;;;;;;;;;4.50;4.50;;;;;23.51;45.92;99267.56;5045286;28;46245;-78
2022/08/02 05:36:21;;;;;;;;;4.00;4.00;;;;;23.47;45.53;99267.00;5045675;28;45354;-77
2022/08/02 05:38:47;;;;;;;;;5.00;4.50;;;;;23.47;45.52;99268.84;5050342;28;45400;-78
2022/08/02 05:41:12;;;;;;;;;5.50;5.50;;;;;23.47;45.73;99263.47;5049689;28;45520;-78
2022/08/02 05:43:37;;;;;;;;;5.00;5.00;;;;;23.45;46.04;99273.53;5051862;28;45460;-78
2022/08/02 05:46:03;;;;;;;;;4.00;4.00;;;;;23.37;46.39;99268.84;5045788;28;45148;-78
2022/08/02 05:48:28;;;;;;;;;4.50;4.50;;;;;23.31;46.25;99264.00;5052618;28;45836;-78
2022/08/02 05:51:01;;;;;;;;;5.25;5.25;;;;;23.26;46.01;99259.06;5049091;28;45424;-77
2022/08/02 05:53:40;;;;;;;;;5.50;5.00;;;;;23.24;46.66;99266.41;5049154;28;46727;-77
2022/08/02 05:56:23;;;;;;;;;3.00;3.00;;;;;23.23;46.58;99263.84;5040438;28;45366;-78
2022/08/02 05:59:01;;;;;;;;;5.50;4.00;;;;;23.20;46.55;99264.13;5040318;28;45427;-78
2022/08/02 06:01:38;;;;;;;;;3.75;3.75;;;;;23.17;46.87;99259.88;5053953;28;45448;-78
2022/08/02 06:04:07;;;;;;;;;4.25;4.25;;;;;23.15;46.99;99253.78;5043491;28;46263;-77
2022/08/02 06:06:33;;;;;;;;;6.40;5.00;;;;;23.18;46.48;99258.03;5052027;28;45618;-77
2022/08/02 06:09:07;;;;;;;;;5.00;5.00;;;;;23.17;46.71;99251.78;5051877;28;45479;-77
2022/08/02 06:11:37;;;;;;;;;5.00;5.00;;;;;23.16;47.15;99252.78;5045693;28;45351;-77
2022/08/02 06:14:04;;;;;;;;;3.00;3.00;;;;;23.19;46.86;99255.19;5049270;28;45915;-78
2022/08/02 06:16:30;;;;;;;;;3.60;3.60;;;;;23.20;46.78;99256.91;5053698;28;45444;-78
2022/08/02 06:18:57;;;;;;;;;6.50;5.00;;;;;23.25;46.76;99251.13;5045911;28;45398;-77
2022/08/02 06:21:25;;;;;;;;;8.00;6.25;;;;;23.32;46.87;99252.25;5040832;28;45556;-78
2022/08/02 06:23:50;;;;;;;;;4.25;4.25;;;;;23.42;46.85;99254.97;5037117;28;45455;-78
2022/08/02 06:26:17;;;;;;;;;4.25;3.50;;;;;23.49;46.57;99254.25;5046276;28;45472;-78
2022/08/02 06:28:44;;;;;;;;;6.00;6.00;;;;;23.57;46.59;99249.06;5048590;28;45361;-78
2022/08/02 06:31:13;;;;;;;;;5.25;4.50;;;;;23.62;46.59;99244.13;5049879;28;45422;-78
2022/08/02 06:33:39;;;;;;;;;5.00;5.00;;;;;23.68;46.10;99250.78;5043060;28;46309;-77
2022/08/02 06:36:08;;;;;;;;;7.00;7.00;;;;;23.73;46.39;99244.97;5050959;28;45503;-78
2022/08/02 06:39:00;;;;;;;;;5.50;4.00;;;;;23.79;46.53;99245.25;5050356;28;45530;-77
2022/08/02 06:41:30;;;;;;;;;4.00;4.00;;;;;23.86;46.62;99238.31;5034840;28;45619;-78
2022/08/02 06:44:03;;;;;;;;;6.75;6.75;;;;;23.94;46.24;99232.22;5049224;28;48243;-78
2022/08/02 06:46:29;;;;;;;;;10.00;8.50;;;;;23.96;45.44;99232.91;5048948;28;45548;-78
2022/08/02 06:48:55;;;;;;;;;7.50;7.25;;;;;23.98;45.51;99239.00;5053469;27;45371;-78
2022/08/02 06:51:20;;;;;;;;;6.50;5.75;;;;;23.99;45.21;99233.47;5049786;28;45500;-77
2022/08/02 06:53:46;;;;;;;;;9.00;7.50;;;;;24.06;45.42;99233.75;5047697;28;46718;-76
2022/08/02 06:56:11;;;;;;;;;6.75;5.50;;;;;24.15;45.27;99235.56;5053889;28;45321;-77
2022/08/02 06:58:37;;;;;;;;;8.00;7.00;;;;;24.24;45.04;99234.75;5050192;28;45421;-77
2022/08/02 07:01:06;;;;;;;;;9.50;8.00;;;;;24.33;45.04;99225.78;5038098;28;45363;-77
2022/08/02 07:03:38;;;;;;;;;7.00;6.00;;;;;24.44;44.76;99230.16;5043635;28;45475;-78
2022/08/02 07:06:07;;;;;;;;;7.00;7.00;;;;;24.54;44.61;99228.25;5055868;27;45341;-77
2022/08/02 07:08:35;;;;;;;;;6.25;6.25;;;;;24.62;44.15;99223.00;5055761;28;45563;-77
2022/08/02 07:11:01;;;;;;;;;4.75;4.50;;;;;24.67;43.84;99226.06;5057070;27;45479;-76
2022/08/02 07:13:29;;;;;;;;;5.50;5.50;;;;;24.70;43.66;99223.09;5051604;28;46435;-76
2022/08/02 07:15:55;;;;;;;;;9.00;7.75;;;;;24.69;43.53;99228.63;5055827;28;45468;-77
2022/08/02 07:18:21;;;;;;;;;8.00;8.00;;;;;24.63;43.93;99232.75;5048256;28;45376;-77
2022/08/02 07:20:46;;;;;;;;;7.00;6.50;;;;;24.61;43.48;99232.09;5050144;28;45468;-76
2022/08/02 07:23:13;;;;;;;;;6.00;6.00;;;;;24.65;44.23;99225.38;5046276;28;46226;-78
2022/08/02 07:25:39;;;;;;;;;6.00;6.00;;;;;24.67;43.80;99223.38;5043381;28;45437;-77
2022/08/02 07:28:05;;;;;;;;;8.50;8.25;;;;;24.69;43.43;99226.78;5056827;28;45376;-78
2022/08/02 07:30:31;;;;;;;;;9.00;7.75;;;;;24.70;43.52;99223.09;5054485;28;45610;-77
2022/08/02 07:32:58;;;;;;;;;8.00;7.25;;;;;24.70;43.35;99212.31;5041877;28;47665;-77
2022/08/02 07:35:24;;;;;;;;;7.00;7.00;;;;;24.72;43.34;99203.22;5054415;28;45534;-78
2022/08/02 07:37:50;;;;;;;;;6.25;6.25;;;;;24.72;43.53;99206.78;5045722;28;45345;-77
2022/08/02 07:40:15;;;;;;;;;6.50;6.25;;;;;24.76;43.59;99208.19;5059042;27;45416;-76
2022/08/02 07:42:42;;;;;;;;;8.00;7.75;;;;;24.81;43.90;99207.69;5052334;28;45626;-77
2022/08/02 07:45:08;;;;;;;;;7.50;7.50;;;;;24.81;43.78;99203.16;5047027;28;45440;-77
2022/08/02 07:47:37;;;;;;;;;7.75;6.75;;;;;24.84;43.66;99200.16;5056223;28;45575;-77
2022/08/02 07:50:04;;;;;;;;;6.50;6.50;;;;;24.94;43.73;99197.47;5047868;28;45373;-77
2022/08/02 07:52:30;;;;;;;;;8.25;6.25;;;;;25.04;43.39;99190.16;5053469;28;45310;-77
2022/08/02 07:54:55;;;;;;;;;7.25;6.25;;;;;25.14;43.19;99188.22;5055412;28;45422;-77
2022/08/02 07:57:21;;;;;;;;;6.50;6.25;;;;;25.19;43.37;99188.63;5047282;28;45331;-77
2022/08/02 07:59:46;;;;;;;;;7.75;5.00;;;;;25.24;44.50;99190.88;5042405;28;45436;-76
2022/08/02 08:02:13;;;;;;;;;7.50;6.25;;;;;25.28;43.93;99181.50;5056035;28;46583;-76
2022/08/02 08:04:39;;;;;;;;;4.75;4.75;;;;;25.33;43.63;99180.00;5040712;28;45551;-76
2022/08/02 08:07:06;;;;;;;;;5.50;5.50;;;;;25.38;43.38;99184.94;5054632;28;45349;-76
2022/08/02 08:09:38;;;;;;;;;9.75;7.25;;;;;25.43;43.06;99179.94;5041563;28;45435;-77
2022/08/02 08:12:05;;;;;;;;;9.25;8.00;;;;;25.46;43.35;99174.25;5053988;28;46801;-79
2022/08/02 08:14:30;;;;;;;;;7.80;6.20;;;;;25.52;42.99;99173.59;5041808;28;45440;-76
2022/08/02 08:16:56;;;;;;;;;7.00;7.00;;;;;25.56;43.14;99168.75;5044074;28;45398;-76
2022/08/02 08:19:21;;;;;;;;;4.25;4.25;;;;;25.61;43.15;99172.69;5053758;28;45367;-78
2022/08/02 08:21:47;;;;;;;;;8.50;8.00;;;;;25.65;42.96;99167.84;5053506;28;45387;-79
2022/08/02 08:24:12;;;;;;;;;7.00;6.25;;;;;25.68;42.88;99165.69;5052613;28;45440;-76
2022/08/02 08:26:38;;;;;;;;;8.50;7.00;;;;;25.75;43.20;99167.75;5038187;28;45472;-76
2022/08/02 08:29:05;;;;;;;;;6.25;5.25;;;;;25.84;42.98;99169.50;5046442;28;45496;-76
2022/08/02 08:31:30;;;;;;;;;7.25;6.00;;;;;25.90;42.59;99161.63;5057294;28;46108;-76
2022/08/02 08:33:56;;;;;;;;;8.00;7.00;;;;;25.94;42.83;99171.13;5035950;28;45382;-77
2022/08/02 08:36:21;;;;;;;;;7.00;7.00;;;;;25.95;42.74;99164.72;5052332;28;45489;-78
2022/08/02 08:38:48;;;;;;;;;8.75;7.00;;;;;25.98;42.48;99158.97;5055643;28;45364;-78
2022/08/02 08:41:15;;;;;;;;;6.00;6.00;;;;;26.02;42.46;99154.97;5055372;28;45492;-77
2022/08/02 08:43:41;;;;;;;;;3.80;3.80;;;;;26.10;42.66;99153.34;5056029;28;45416;-77
2022/08/02 08:46:09;;;;;;;;;5.25;5.25;;;;;26.17;42.46;99151.66;5036644;28;45428;-78
2022/08/02 08:48:43;;;;;;;;;6.25;6.25;;;;;26.25;42.26;99149.88;5039551;28;45347;-76
2022/08/02 08:51:15;;;;;;;;;5.00;5.00;;;;;26.36;42.21;99151.47;5053476;28;48353;-75
2022/08/02 08:53:47;;;;;;;;;7.00;7.00;;;;;26.42;42.05;99140.03;5055305;28;45330;-76
2022/08/02 08:56:15;;;;;;;;;6.50;6.50;;;;;26.49;42.30;99132.94;5044730;28;45501;-76
2022/08/02 08:58:42;;;;;;;;;7.00;7.00;;;;;26.60;42.58;99142.66;5035799;28;45531;-76
2022/08/02 09:01:08;;;;;;;;;5.25;5.25;;;;;26.69;41.94;99141.66;5055276;28;46803;-75
2022/08/02 09:03:33;;;;;;;;;6.00;5.00;;;;;26.75;41.72;99141.84;5054924;28;45368;-76
2022/08/02 09:05:59;;;;;;;;;5.25;5.25;;;;;26.81;41.80;99147.63;5066643;27;45332;-75
2022/08/02 09:08:25;;;;;;;;;7.50;7.50;;;;;26.90;41.60;99150.19;5034935;28;45373;-76
2022/08/02 09:10:51;;;;;;;;;6.00;4.75;;;;;26.94;41.83;99137.22;5054805;28;45365;-76
2022/08/02 09:13:16;;;;;;;;;6.25;6.25;;;;;26.97;41.99;99145.84;5054371;28;45576;-75
2022/08/02 09:15:44;;;;;;;;;6.50;6.50;;;;;27.02;41.99;99140.78;5053098;28;45402;-76
2022/08/02 09:18:12;;;;;;;;;8.00;6.75;;;;;27.05;42.18;99129.63;5053883;28;45518;-76
2022/08/02 09:20:56;;;;;;;;;5.00;5.00;;;;;27.15;42.13;99139.47;5042517;28;46253;-76
2022/08/02 09:23:22;;;;;;;;;6.00;6.00;;;;;27.21;40.97;99153.16;5041038;28;45261;-76
2022/08/02 09:26:09;;;;;;;;;6.75;6.25;;;;;27.27;41.42;99132.72;5054552;28;45436;-76
2022/08/02 09:28:37;;;;;;;;;9.00;9.00;;;;;27.31;41.67;99134.06;5043898;28;45420;-77
2022/08/02 09:31:11;;;;;;;;;7.00;6.25;;;;;27.35;41.61;99152.50;5050074;28;46668;-77
2022/08/02 09:33:39;;;;;;;;;5.50;5.50;;;;;27.39;40.94;99134.06;5041041;28;45399;-78
2022/08/02 09:36:10;;;;;;;;;7.25;7.00;;;;;27.44;41.08;99129.84;5039076;28;45487;-77
2022/08/02 09:38:37;;;;;;;;;8.75;7.75;;;;;27.48;41.26;99135.78;5054203;28;45668;-78
2022/08/02 09:41:04;;;;;;;;;7.50;6.50;;;;;27.55;39.47;99136.78;5046730;27;45466;-78
2022/08/02 09:43:37;;;;;;;;;7.60;7.60;;;;;27.63;40.63;99139.53;5048461;28;45408;-78
2022/08/02 09:46:18;;;;;;;;;5.75;4.75;;;;;27.71;41.10;99122.41;5054824;28;45419;-77
2022/08/02 09:48:54;;;;;;;;;4.00;4.00;;;;;27.81;41.11;99125.81;5049935;28;45440;-77
2022/08/02 09:51:25;;;;;;;;;7.00;6.25;;;;;27.92;40.99;99122.75;5053092;28;45439;-76
2022/08/02 09:53:53;;;;;;;;;4.60;4.60;;;;;27.99;40.03;99123.72;5041071;28;45415;-77
2022/08/02 09:56:19;;;;;;;;;8.50;6.50;;;;;28.07;40.11;99128.31;5041905;28;45471;-77
2022/08/02 09:58:45;;;;;;;;;8.00;6.00;;;;;28.15;40.07;99120.16;5032510;28;45442;-77
2022/08/02 10:01:18;;;;;;;;;7.00;7.00;;;;;28.23;39.67;99124.72;5033676;28;46353;-77
2022/08/02 10:04:10;;;;;;;;;3.60;3.60;;;;;28.30;39.44;99134.72;5040907;28;45411;-76
2022/08/02 10:06:38;;;;;;;;;5.75;5.75;;;;;28.35;40.49;99113.31;5052160;28;45401;-77
2022/08/02 10:09:05;;;;;;;;;5.50;5.50;;;;;28.39;40.49;99125.53;5054305;28;45269;-77
2022/08/02 10:11:31;;;;;;;;;4.25;4.00;;;;;28.45;40.19;99107.72;5052295;28;48427;-76
2022/08/02 10:13:57;;;;;;;;;4.00;2.25;;;;;28.49;39.93;99104.47;5053645;28;45435;-76
2022/08/02 10:16:23;;;;;;;;;6.25;5.50;;;;;28.57;40.44;99108.16;5054347;28;45439;-77
2022/08/02 10:18:59;;;;;;;;;5.25;5.25;;;;;28.64;40.27;99107.28;5051565;28;45550;-77
2022/08/02 10:21:35;;;;;;;;;2.75;2.75;;;;;28.70;39.95;99114.72;5043990;28;47991;-76
2022/08/02 10:24:05;;;;;;;;;5.40;5.00;;;;;28.76;39.58;99107.75;5037362;28;45439;-76
2022/08/02 10:26:31;;;;;;;;;5.00;5.00;;;;;28.79;39.66;99093.81;5057553;28;45612;-76
2022/08/02 10:28:57;;;;;;;;;4.75;4.75;;;;;28.80;39.46;99104.53;5057060;28;45349;-76
2022/08/02 10:31:44;;;;;;;;;4.75;4.75;;;;;28.82;39.66;99086.19;5049345;28;45568;-77
2022/08/02 10:34:13;;;;;;;;;5.75;5.75;;;;;28.89;39.38;99080.03;5050279;28;45460;-77
2022/08/02 10:36:41;;;;;;;;;6.00;5.25;;;;;29.00;39.15;99079.63;5045647;28;45350;-77
2022/08/02 10:39:06;;;;;;;;;6.50;6.50;;;;;29.09;39.42;99076.69;5054002;28;45340;-77
2022/08/02 10:41:43;;;;;;;;;4.00;4.00;;;;;29.20;39.35;99083.56;5056201;28;46157;-77
2022/08/02 10:44:18;;;;;;;;;5.20;5.20;;;;;29.28;38.42;99085.38;5053270;28;45429;-77
2022/08/02 10:46:44;;;;;;;;;6.00;6.00;;;;;29.29;37.99;99100.66;5043665;28;45452;-76
2022/08/02 10:49:18;;;;;;;;;6.75;5.50;;;;;29.26;38.40;99074.69;5054852;27;45400;-77
2022/08/02 10:51:59;;;;;;;;;7.50;7.50;;;;;29.35;38.55;99076.31;5035764;28;46503;-76
2022/08/02 10:54:26;;;;;;;;;7.50;5.00;;;;;29.42;37.81;99081.91;5055357;28;45483;-77
2022/08/02 10:56:54;;;;;;;;;5.25;3.25;;;;;29.48;38.04;99097.47;5049597;28;45450;-77
2022/08/02 10:59:30;;;;;;;;;5.50;4.50;;;;;29.54;38.12;99077.72;5051285;28;45318;-76
2022/08/02 11:02:05;;;;;;;;;8.75;6.75;;;;;29.56;38.15;99062.06;5051038;28;45489;-77
2022/08/02 11:04:42;;;;;;;;;8.00;5.00;;;;;29.57;38.12;99069.19;5048648;28;45398;-77
2022/08/02 11:07:32;;;;;;;;;5.25;5.25;;;;;29.63;37.49;99065.75;5053393;28;45457;-77
2022/08/02 11:10:00;;;;;;;;;7.75;4.75;;;;;29.64;37.50;99055.72;5036680;28;45684;-77
2022/08/02 11:12:26;;;;;;;;;4.50;4.00;;;;;29.74;37.87;99043.53;5042393;28;47365;-77
2022/08/02 11:15:04;;;;;;;;;3.75;3.75;;;;;29.86;37.18;99046.63;5069535;28;45328;-77
2022/08/02 11:17:52;;;;;;;;;5.50;5.00;;;;;29.89;37.24;99042.72;5055789;28;45450;-77
2022/08/02 11:20:19;;;;;;;;;6.00;4.00;;;;;29.90;37.30;99023.50;5050146;28;45416;-77
2022/08/02 11:22:47;;;;;;;;;5.00;5.00;;;;;29.98;36.59;99036.19;5036444;28;45489;-77
2022/08/02 11:25:21;;;;;;;;;6.00;6.00;;;;;30.03;37.08;99044.63;5055289;28;45412;-77
2022/08/02 11:27:48;;;;;;;;;5.00;5.00;;;;;30.08;37.56;99015.00;5042143;28;45545;-77
2022/08/02 11:30:13;;;;;;;;;6.00;6.00;;;;;30.18;37.06;99038.13;5042490;28;45491;-77
2022/08/02 11:32:39;;;;;;;;;6.25;6.25;;;;;30.19;36.92;99039.81;5056158;28;45491;-77
2022/08/02 11:35:04;;;;;;;;;3.25;3.25;;;;;30.18;36.92;99040.84;5043223;28;45476;-77
2022/08/02 11:37:42;;;;;;;;;2.25;2.25;;;;;30.17;36.73;99038.31;5052602;28;45353;-75
2022/08/02 11:40:15;;;;;;;;;4.50;4.50;;;;;30.19;37.12;99026.22;5038642;28;45440;-76
2022/08/02 11:42:44;;;;;;;;;6.00;6.00;;;;;30.25;37.27;99011.03;5035580;28;47141;-76